createdAt,value
2023-06-06T00:00:46.611Z,4.30
2023-06-06T00:03:22.558Z,4.07
2023-06-06T00:05:53.134Z,4.95
2023-06-06T00:08:25.256Z,3.92
2023-06-06T00:10:58.551Z,4.53
2023-06-06T00:13:31.718Z,4.20
2023-06-06T00:16:04.929Z,4.25
2023-06-06T00:18:35.255Z,4.70
2023-06-06T00:21:05.637Z,4.20
2023-06-06T00:23:39.248Z,4.00
2023-06-06T00:26:09.583Z,4.05
2023-06-06T00:28:43.124Z,4.57
2023-06-06T00:31:16.235Z,3.83
2023-06-06T00:33:46.516Z,4.20
2023-06-06T00:36:16.845Z,3.78
2023-06-06T00:38:48.398Z,4.03
2023-06-06T00:41:18.942Z,4.05
2023-06-06T00:43:52.380Z,4.95
2023-06-06T00:46:28.690Z,4.22
2023-06-06T00:48:59.780Z,4.50
2023-06-06T00:51:30.560Z,4.53
2023-06-06T00:54:02.881Z,4.93
2023-06-06T00:56:34.466Z,4.40
2023-06-06T00:59:05.877Z,4.72
2023-06-06T01:01:49.001Z,4.00
2023-06-06T01:04:22.225Z,4.53
2023-06-06T01:06:53.263Z,4.88
2023-06-06T01:09:23.704Z,4.68
2023-06-06T01:12:08.006Z,4.45
2023-06-06T01:14:51.695Z,4.57
2023-06-06T01:17:28.444Z,4.80
2023-06-06T01:20:01.102Z,4.45
2023-06-06T01:22:37.209Z,4.40
2023-06-06T01:25:10.397Z,4.40
2023-06-06T01:27:50.551Z,4.90
2023-06-06T01:30:25.752Z,4.75
2023-06-06T01:33:14.005Z,4.88
2023-06-06T01:36:02.660Z,4.88
2023-06-06T01:38:44.076Z,4.50
2023-06-06T01:41:17.703Z,4.70
2023-06-06T01:43:53.853Z,5.50
2023-06-06T01:46:24.600Z,4.75
2023-06-06T01:48:56.918Z,4.70
2023-06-06T01:51:30.338Z,4.70
2023-06-06T01:54:06.602Z,4.63
2023-06-06T01:56:39.814Z,5.53
2023-06-06T01:59:10.161Z,5.10
2023-06-06T02:01:40.506Z,5.03
2023-06-06T02:04:13.859Z,5.13
2023-06-06T02:06:44.095Z,4.55
2023-06-06T02:09:19.288Z,5.40
2023-06-06T02:11:49.550Z,5.50
2023-06-06T02:14:22.427Z,4.57
2023-06-06T02:16:55.760Z,5.65
2023-06-06T02:19:26.458Z,5.55
2023-06-06T02:21:56.812Z,5.40
2023-06-06T02:24:29.954Z,5.45
2023-06-06T02:27:01.110Z,5.55
2023-06-06T02:29:31.477Z,5.45
2023-06-06T02:32:04.890Z,5.43
2023-06-06T02:34:38.345Z,6.03
2023-06-06T02:37:09.749Z,5.80
2023-06-06T02:39:45.487Z,5.47
2023-06-06T02:42:17.901Z,5.43
2023-06-06T02:44:48.202Z,6.22
2023-06-06T02:47:18.729Z,6.30
2023-06-06T02:49:56.779Z,5.78
2023-06-06T02:52:27.163Z,5.90
2023-06-06T02:55:02.377Z,5.43
2023-06-06T02:57:34.244Z,5.90
2023-06-06T03:00:09.900Z,6.38
2023-06-06T03:02:40.710Z,5.80
2023-06-06T03:05:18.532Z,6.22
2023-06-06T03:07:48.777Z,5.28
2023-06-06T03:10:21.784Z,5.45
2023-06-06T03:12:52.040Z,5.22
2023-06-06T03:15:22.773Z,5.78
2023-06-06T03:17:56.130Z,5.63
2023-06-06T03:20:28.153Z,6.20
2023-06-06T03:22:58.374Z,6.70
2023-06-06T03:25:32.729Z,5.80
2023-06-06T03:28:03.207Z,5.45
2023-06-06T03:30:36.603Z,5.10
2023-06-06T03:33:07.580Z,5.30
2023-06-06T03:35:39.368Z,4.95
2023-06-06T03:38:13.358Z,6.70
2023-06-06T03:40:49.021Z,5.97
2023-06-06T03:43:19.289Z,5.70
2023-06-06T03:45:49.833Z,5.50
2023-06-06T03:48:20.126Z,5.45
2023-06-06T03:50:53.356Z,5.50
2023-06-06T03:53:23.602Z,5.78
2023-06-06T03:56:00.469Z,6.07
2023-06-06T03:58:31.089Z,5.70
2023-06-06T04:01:02.856Z,5.95
2023-06-06T04:03:38.196Z,5.70
2023-06-06T04:06:11.565Z,6.30
2023-06-06T04:08:42.901Z,5.30
2023-06-06T04:11:16.057Z,5.03
2023-06-06T04:13:48.893Z,5.28
2023-06-06T04:16:19.247Z,5.18
2023-06-06T04:18:49.581Z,5.70
2023-06-06T04:21:19.871Z,6.18
2023-06-06T04:23:55.435Z,5.30
2023-06-06T04:26:34.519Z,6.32
2023-06-06T04:29:04.795Z,5.70
2023-06-06T04:31:35.140Z,5.65
2023-06-06T04:34:10.965Z,5.85
2023-06-06T04:36:42.423Z,6.38
2023-06-06T04:39:20.143Z,6.18
2023-06-06T04:41:57.747Z,6.05
2023-06-06T04:44:44.076Z,6.55
2023-06-06T04:50:22.299Z,6.25
2023-06-06T04:52:55.715Z,7.32
2023-06-06T04:55:29.287Z,6.70
2023-06-06T04:58:04.175Z,7.25
2023-06-06T05:00:37.309Z,7.38
2023-06-06T05:03:10.311Z,7.53
2023-06-06T05:05:40.673Z,7.78
2023-06-06T05:08:11.014Z,9.07
2023-06-06T05:10:46.943Z,8.48
2023-06-06T05:13:22.466Z,8.77
2023-06-06T05:15:52.774Z,7.18
2023-06-06T05:18:23.392Z,6.95
2023-06-06T05:20:53.864Z,7.15
2023-06-06T05:23:27.565Z,7.60
2023-06-06T05:25:58.709Z,7.22
2023-06-06T05:28:32.140Z,7.55
2023-06-06T05:31:03.883Z,7.07
2023-06-06T05:33:34.663Z,8.27
2023-06-06T05:36:05.099Z,8.93
2023-06-06T05:38:38.357Z,8.90
2023-06-06T05:41:09.044Z,9.20
2023-06-06T05:43:44.894Z,8.65
2023-06-06T05:46:15.906Z,9.07
2023-06-06T05:48:46.376Z,8.90
2023-06-06T05:51:16.994Z,9.20
2023-06-06T05:53:48.091Z,9.40
2023-06-06T05:56:20.164Z,9.02
2023-06-06T05:58:56.302Z,7.90
2023-06-06T06:01:26.832Z,9.43
2023-06-06T06:03:57.281Z,9.57
2023-06-06T06:06:28.333Z,8.70
2023-06-06T06:08:59.304Z,9.63
2023-06-06T06:11:29.741Z,8.98
2023-06-06T06:14:05.000Z,10.70
2023-06-06T06:16:35.303Z,9.48
2023-06-06T06:19:09.703Z,10.35
2023-06-06T06:21:39.971Z,8.57
2023-06-06T06:24:16.333Z,10.20
2023-06-06T06:26:46.735Z,10.05
2023-06-06T06:29:22.007Z,10.35
2023-06-06T06:31:58.098Z,10.02
2023-06-06T06:34:31.362Z,9.52
2023-06-06T06:37:02.470Z,9.15
2023-06-06T06:39:32.755Z,9.02
2023-06-06T06:42:08.352Z,9.55
2023-06-06T06:44:42.397Z,10.13
2023-06-06T06:47:12.829Z,9.48
2023-06-06T06:49:47.203Z,10.02
2023-06-06T06:52:20.657Z,10.63
2023-06-06T06:54:54.509Z,9.95
2023-06-06T06:57:27.782Z,10.40
2023-06-06T07:00:01.004Z,9.93
2023-06-06T07:02:33.358Z,9.48
2023-06-06T07:05:07.239Z,10.00
2023-06-06T07:07:37.650Z,9.45
2023-06-06T07:10:11.134Z,8.63
2023-06-06T07:12:41.530Z,10.27
2023-06-06T07:15:17.565Z,9.77
2023-06-06T07:17:51.576Z,9.90
2023-06-06T07:20:26.068Z,9.55
2023-06-06T07:22:57.397Z,10.32
2023-06-06T07:25:28.183Z,10.07
2023-06-06T07:28:01.625Z,9.18
2023-06-06T07:30:34.529Z,9.88
2023-06-06T07:33:05.227Z,9.50
2023-06-06T07:35:37.430Z,10.25
2023-06-06T07:38:10.726Z,9.32
2023-06-06T07:40:41.006Z,9.93
2023-06-06T07:43:12.783Z,9.70
2023-06-06T07:45:47.880Z,9.05
2023-06-06T07:48:18.204Z,9.75
2023-06-06T07:50:48.854Z,9.00
2023-06-06T07:53:19.217Z,9.80
2023-06-06T07:55:49.496Z,9.90
2023-06-06T07:58:23.707Z,9.23
2023-06-06T08:00:59.969Z,9.20
2023-06-06T08:03:30.340Z,9.18
2023-06-06T08:06:00.740Z,8.77
2023-06-06T08:08:33.630Z,8.80
2023-06-06T08:11:03.945Z,8.18
2023-06-06T08:13:34.261Z,9.40
2023-06-06T08:16:07.285Z,7.65
2023-06-06T08:18:37.719Z,8.10
2023-06-06T08:21:08.221Z,7.82
2023-06-06T08:23:38.444Z,8.80
2023-06-06T08:26:09.106Z,9.18
2023-06-06T08:28:39.619Z,9.13
2023-06-06T08:31:14.636Z,8.55
2023-06-06T08:33:44.984Z,8.57
2023-06-06T08:36:15.382Z,8.73
2023-06-06T08:38:54.672Z,8.13
2023-06-06T08:41:27.240Z,8.68
2023-06-06T08:44:00.585Z,8.55
2023-06-06T08:46:39.793Z,9.00
2023-06-06T08:49:14.634Z,9.25
2023-06-06T08:51:48.689Z,9.48
2023-06-06T08:54:21.801Z,7.13
2023-06-06T08:56:53.138Z,9.38
2023-06-06T08:59:24.189Z,9.18
2023-06-06T09:01:59.158Z,8.50
2023-06-06T09:04:30.947Z,8.40
2023-06-06T09:07:10.109Z,7.13
2023-06-06T09:09:50.307Z,7.80
2023-06-06T09:12:20.827Z,8.95
2023-06-06T09:14:51.096Z,8.70
2023-06-06T09:17:23.995Z,9.10
2023-06-06T09:20:01.925Z,7.22
2023-06-06T09:22:32.260Z,8.30
2023-06-06T09:25:21.359Z,7.88
2023-06-06T09:27:56.994Z,7.13
2023-06-06T09:30:29.509Z,7.55
2023-06-06T09:33:06.861Z,7.35
2023-06-06T09:35:39.682Z,7.53
2023-06-06T09:38:14.297Z,6.80
2023-06-06T09:40:49.593Z,8.00
2023-06-06T09:43:26.332Z,8.18
2023-06-06T09:46:00.911Z,7.97
2023-06-06T09:48:39.605Z,6.93
2023-06-06T09:51:13.448Z,7.90
2023-06-06T09:53:51.922Z,7.50
2023-06-06T09:56:25.879Z,7.32
2023-06-06T09:59:01.565Z,7.05
2023-06-06T10:01:37.679Z,7.70
2023-06-06T10:04:14.810Z,6.43
2023-06-06T10:06:48.055Z,5.40
2023-06-06T10:09:19.992Z,5.00
2023-06-06T10:11:50.614Z,4.85
2023-06-06T10:14:21.513Z,5.32
2023-06-06T10:16:52.108Z,5.22
2023-06-06T10:19:29.013Z,5.18
2023-06-06T10:22:01.145Z,5.55
2023-06-06T10:24:32.768Z,5.15
2023-06-06T10:27:19.459Z,5.60
2023-06-06T10:29:58.070Z,4.97
2023-06-06T10:32:52.000Z,5.32
2023-06-06T10:35:28.538Z,5.38
2023-06-06T10:38:10.726Z,5.75
2023-06-06T10:40:57.218Z,5.40
2023-06-06T10:43:58.426Z,6.35
2023-06-06T10:46:28.767Z,5.80
2023-06-06T10:49:08.332Z,5.82
2023-06-06T10:51:44.299Z,5.75
2023-06-06T10:54:23.108Z,6.50
2023-06-06T10:56:58.266Z,5.15
2023-06-06T10:59:33.675Z,5.45
2023-06-06T11:02:04.174Z,4.93
2023-06-06T11:04:42.386Z,6.45
2023-06-06T11:07:22.658Z,5.85
2023-06-06T11:09:55.350Z,5.45
2023-06-06T11:12:32.321Z,5.35
2023-06-06T11:15:07.354Z,5.90
2023-06-06T11:17:51.249Z,5.53
2023-06-06T11:20:23.121Z,5.45
2023-06-06T11:23:03.501Z,5.03
2023-06-06T11:25:38.901Z,5.80
2023-06-06T11:28:10.239Z,5.88
2023-06-06T11:30:41.305Z,5.20
2023-06-06T11:33:12.796Z,5.32
2023-06-06T11:35:43.533Z,5.85
2023-06-06T11:38:19.463Z,6.32
2023-06-06T11:40:50.226Z,4.97
2023-06-06T11:43:23.587Z,5.22
2023-06-06T11:46:10.160Z,4.55
2023-06-06T11:48:40.508Z,5.60
2023-06-06T11:51:22.573Z,4.90
2023-06-06T11:53:55.729Z,5.50
2023-06-06T11:56:26.934Z,5.35
2023-06-06T11:58:57.328Z,4.10
2023-06-06T12:01:27.687Z,4.72
2023-06-06T12:04:00.682Z,4.68
2023-06-06T12:06:31.180Z,4.65
2023-06-06T12:09:04.733Z,4.22
2023-06-06T12:11:34.998Z,4.57
2023-06-06T12:14:15.600Z,3.88
2023-06-06T12:16:55.112Z,4.07
2023-06-06T12:19:38.321Z,4.32
2023-06-06T12:22:23.362Z,4.47
2023-06-06T12:24:59.100Z,8.93
2023-06-06T12:27:31.195Z,4.40
2023-06-06T12:30:02.297Z,3.78
2023-06-06T12:32:37.798Z,4.03
2023-06-06T12:35:09.292Z,4.00
2023-06-06T12:37:42.617Z,3.80
2023-06-06T12:40:24.983Z,3.70
2023-06-06T12:42:56.149Z,3.78
2023-06-06T12:45:28.187Z,3.90
2023-06-06T12:48:02.358Z,4.13
2023-06-06T12:50:33.102Z,4.00
2023-06-06T12:53:04.268Z,3.55
2023-06-06T12:58:13.429Z,3.70
2023-06-06T13:00:44.229Z,3.85
2023-06-06T13:03:18.064Z,3.40
2023-06-06T13:05:54.835Z,3.80
2023-06-06T13:08:37.201Z,3.95
2023-06-06T13:11:21.913Z,4.57
2023-06-06T13:13:52.348Z,4.80
2023-06-06T13:16:22.828Z,4.47
2023-06-06T13:18:53.177Z,4.78
2023-06-06T13:21:23.560Z,4.57
2023-06-06T13:23:53.968Z,4.82
2023-06-06T13:26:27.166Z,4.70
2023-06-06T13:28:57.598Z,4.18
2023-06-06T13:31:28.076Z,4.57
2023-06-06T13:33:58.493Z,3.90
2023-06-06T13:36:28.915Z,4.20
2023-06-06T13:38:59.150Z,3.80
2023-06-06T13:41:32.238Z,3.53
2023-06-06T13:44:05.513Z,3.88
2023-06-06T13:46:46.154Z,4.47
2023-06-06T13:49:26.080Z,4.15
2023-06-06T13:51:56.430Z,3.88
2023-06-06T13:54:27.033Z,4.18
2023-06-06T13:57:04.156Z,3.92
2023-06-06T13:59:37.530Z,3.60
2023-06-06T14:02:09.007Z,3.88
2023-06-06T14:04:40.710Z,3.53
2023-06-06T14:07:15.514Z,3.83
2023-06-06T14:09:50.235Z,3.80
2023-06-06T14:12:25.676Z,4.50
2023-06-06T14:15:03.420Z,4.05
2023-06-06T14:17:34.554Z,3.92
2023-06-06T14:20:05.035Z,3.90
2023-06-06T14:22:50.452Z,4.55
2023-06-06T14:25:22.124Z,4.25
2023-06-06T14:27:55.029Z,4.25
2023-06-06T14:30:25.634Z,3.55
2023-06-06T14:32:55.933Z,4.50
2023-06-06T14:35:27.322Z,3.70
2023-06-06T14:37:57.642Z,3.97
2023-06-06T14:40:27.892Z,4.32
2023-06-06T14:43:03.854Z,4.07
2023-06-06T14:45:34.161Z,4.43
2023-06-06T14:48:04.804Z,4.25
2023-06-06T14:50:35.336Z,3.88
2023-06-06T14:53:06.523Z,3.95
2023-06-06T14:55:37.591Z,3.67
2023-06-06T14:58:10.613Z,3.55
2023-06-06T15:00:40.932Z,3.47
2023-06-06T15:03:11.571Z,3.60
2023-06-06T15:05:44.983Z,3.40
2023-06-06T15:08:22.614Z,3.20
2023-06-06T15:10:52.939Z,3.65
2023-06-06T15:13:25.936Z,3.40
2023-06-06T15:15:56.416Z,3.65
2023-06-06T15:18:32.261Z,3.72
2023-06-06T15:21:02.594Z,3.42
2023-06-06T15:23:35.138Z,3.70
2023-06-06T15:26:05.572Z,4.05
2023-06-06T15:28:44.295Z,3.50
2023-06-06T15:31:16.857Z,3.60
2023-06-06T15:33:47.185Z,4.03
2023-06-06T15:36:17.504Z,3.88
2023-06-06T15:38:47.794Z,3.58
2023-06-06T15:41:20.632Z,3.75
2023-06-06T15:43:56.473Z,3.90
2023-06-06T15:46:27.490Z,3.35
2023-06-06T15:48:58.103Z,3.58
2023-06-06T15:51:28.458Z,3.55
2023-06-06T15:53:58.776Z,3.55
2023-06-06T15:56:29.265Z,3.78
2023-06-06T15:59:04.363Z,4.00
2023-06-06T16:01:34.709Z,3.55
2023-06-06T16:04:08.388Z,3.38
2023-06-06T16:06:38.697Z,3.50
2023-06-06T16:09:09.002Z,3.35
2023-06-06T16:11:39.281Z,3.60
2023-06-06T16:14:12.178Z,3.80
2023-06-06T16:16:42.581Z,3.20
2023-06-06T16:19:13.383Z,3.90
2023-06-06T16:22:02.331Z,3.80
2023-06-06T16:24:34.372Z,3.10
2023-06-06T16:27:08.073Z,3.50
2023-06-06T16:29:40.954Z,3.42
2023-06-06T16:32:13.539Z,3.67
2023-06-06T16:34:44.180Z,3.53
2023-06-06T16:37:14.685Z,3.53
2023-06-06T16:39:47.790Z,3.70
2023-06-06T16:42:18.155Z,3.53
2023-06-06T16:44:55.196Z,3.38
2023-06-06T16:47:25.775Z,3.40
2023-06-06T16:49:56.621Z,3.58
2023-06-06T16:52:27.517Z,4.13
2023-06-06T16:54:57.815Z,3.88
2023-06-06T16:57:28.151Z,3.10
2023-06-06T17:00:18.091Z,3.40
2023-06-06T17:02:49.701Z,3.30
2023-06-06T17:05:20.357Z,3.53
2023-06-06T17:07:53.503Z,2.97
2023-06-06T17:10:27.088Z,3.28
2023-06-06T17:13:00.060Z,3.72
2023-06-06T17:15:36.769Z,3.40
2023-06-06T17:18:07.330Z,3.60
2023-06-06T17:20:38.389Z,3.53
2023-06-06T17:23:08.642Z,3.70
2023-06-06T17:25:49.967Z,3.67
2023-06-06T17:28:24.304Z,3.80
2023-06-06T17:31:02.763Z,3.80
2023-06-06T17:33:33.225Z,3.40
2023-06-06T17:36:03.486Z,3.50
2023-06-06T17:38:41.298Z,3.72
2023-06-06T17:41:11.716Z,4.00
2023-06-06T17:43:53.281Z,3.70
2023-06-06T17:46:26.213Z,3.70
2023-06-06T17:49:06.600Z,4.10
2023-06-06T17:51:37.760Z,3.55
2023-06-06T17:54:08.604Z,3.60
2023-06-06T17:56:39.097Z,4.20
2023-06-06T17:59:13.574Z,4.10
2023-06-06T18:01:46.496Z,3.88
2023-06-06T18:04:17.600Z,3.58
2023-06-06T18:06:53.386Z,3.80
2023-06-06T18:09:29.746Z,3.78
2023-06-06T18:12:00.574Z,4.07
2023-06-06T18:14:33.475Z,4.18
2023-06-06T18:17:07.070Z,3.45
2023-06-06T18:19:37.400Z,3.78
2023-06-06T18:22:08.380Z,3.92
2023-06-06T18:24:41.410Z,4.03
2023-06-06T18:27:11.900Z,4.47
2023-06-06T18:29:42.944Z,3.92
2023-06-06T18:32:16.816Z,3.70
2023-06-06T18:34:47.105Z,3.83
2023-06-06T18:37:17.649Z,3.20
2023-06-06T18:39:47.919Z,3.75
2023-06-06T18:42:19.537Z,3.80
2023-06-06T18:44:51.628Z,3.72
2023-06-06T18:47:24.638Z,3.70
2023-06-06T18:49:55.025Z,3.25
2023-06-06T18:52:25.243Z,3.72
2023-06-06T18:54:55.581Z,3.22
2023-06-06T18:57:28.533Z,3.45
2023-06-06T18:59:59.187Z,3.53
2023-06-06T19:02:32.315Z,3.25
2023-06-06T19:05:02.697Z,3.92
2023-06-06T19:07:32.971Z,3.90
2023-06-06T19:10:04.159Z,3.42
2023-06-06T19:12:45.848Z,3.75
2023-06-06T19:15:32.405Z,3.90
2023-06-06T19:18:16.058Z,2.80
2023-06-06T19:20:52.665Z,3.88
2023-06-06T19:23:23.006Z,2.67
2023-06-06T19:26:02.586Z,3.00
2023-06-06T19:28:36.743Z,3.13
2023-06-06T19:31:08.034Z,3.08
2023-06-06T19:33:44.130Z,3.20
2023-06-06T19:36:14.563Z,3.25
2023-06-06T19:38:44.887Z,3.30
2023-06-06T19:41:15.152Z,3.20
2023-06-06T19:43:47.889Z,2.90
2023-06-06T19:46:18.503Z,3.10
2023-06-06T19:48:51.404Z,2.90
2023-06-06T19:51:21.816Z,3.40
2023-06-06T19:53:52.568Z,3.10
2023-06-06T19:56:27.815Z,3.40
2023-06-06T19:58:58.157Z,3.10
2023-06-06T20:01:28.485Z,3.67
2023-06-06T20:04:02.080Z,3.20
2023-06-06T20:06:36.433Z,2.92
2023-06-06T20:09:07.323Z,3.25
2023-06-06T20:11:37.914Z,3.30
2023-06-06T20:14:10.849Z,3.15
2023-06-06T20:16:44.208Z,2.97
2023-06-06T20:19:17.397Z,3.25
2023-06-06T20:21:47.704Z,3.30
2023-06-06T20:24:18.038Z,3.50
2023-06-06T20:26:48.244Z,3.13
2023-06-06T20:29:18.480Z,3.40
2023-06-06T20:31:50.880Z,3.20
2023-06-06T20:34:23.755Z,3.42
2023-06-06T20:36:53.964Z,3.40
2023-06-06T20:39:35.341Z,3.33
2023-06-06T20:42:06.101Z,3.28
2023-06-06T20:44:37.122Z,3.50
2023-06-06T20:47:08.570Z,3.28
2023-06-06T20:49:42.303Z,3.20
2023-06-06T20:52:15.876Z,3.30
2023-06-06T20:54:46.437Z,3.50
2023-06-06T20:57:16.981Z,3.70
2023-06-06T20:59:47.233Z,3.38
2023-06-06T21:02:17.621Z,4.05
2023-06-06T21:04:50.743Z,3.72
2023-06-06T21:07:21.067Z,3.45
2023-06-06T21:09:51.579Z,3.30
2023-06-06T21:12:25.055Z,3.55
2023-06-06T21:14:55.416Z,3.42
2023-06-06T21:17:26.308Z,3.28
2023-06-06T21:20:01.616Z,3.38
2023-06-06T21:22:32.322Z,3.13
2023-06-06T21:25:02.581Z,3.33
2023-06-06T21:27:33.850Z,3.80
2023-06-06T21:30:04.727Z,3.10
2023-06-06T21:32:35.376Z,3.33
2023-06-06T21:35:09.211Z,3.20
2023-06-06T21:37:39.650Z,3.80
2023-06-06T21:40:12.405Z,3.58
2023-06-06T21:42:45.080Z,3.53
2023-06-06T21:45:15.482Z,3.30
2023-06-06T21:47:50.613Z,3.55
2023-06-06T21:50:23.471Z,3.20
2023-06-06T21:52:56.561Z,3.38
2023-06-06T21:55:29.928Z,3.75
2023-06-06T21:58:00.224Z,4.00
2023-06-06T22:00:31.184Z,3.50
2023-06-06T22:03:10.333Z,3.67
2023-06-06T22:05:45.356Z,3.92
2023-06-06T22:08:21.561Z,3.50
2023-06-06T22:10:52.165Z,3.83
2023-06-06T22:13:25.127Z,3.83
2023-06-06T22:15:56.206Z,3.88
2023-06-06T22:18:29.303Z,3.20
2023-06-06T22:21:02.166Z,3.45
2023-06-06T22:23:33.820Z,3.97
2023-06-06T22:26:12.290Z,4.38
2023-06-06T22:28:43.307Z,3.28
2023-06-06T22:31:13.617Z,3.45
2023-06-06T22:33:47.003Z,3.88
2023-06-06T22:36:19.879Z,3.17
2023-06-06T22:38:50.170Z,3.45
2023-06-06T22:41:23.281Z,3.38
2023-06-06T22:43:56.415Z,3.30
2023-06-06T22:46:26.729Z,3.33
2023-06-06T22:48:57.158Z,3.67
2023-06-06T22:51:35.139Z,3.30
2023-06-06T22:54:06.184Z,3.40
2023-06-06T22:56:36.674Z,3.70
2023-06-06T22:59:10.059Z,3.65
2023-06-06T23:01:40.374Z,3.50
2023-06-06T23:04:10.778Z,3.40
2023-06-06T23:06:43.595Z,3.60
2023-06-06T23:09:17.471Z,4.15
2023-06-06T23:11:47.875Z,3.90
2023-06-06T23:14:18.224Z,3.78
2023-06-06T23:16:48.474Z,3.55
2023-06-06T23:19:18.759Z,3.80
2023-06-06T23:21:53.306Z,3.55
2023-06-06T23:24:23.538Z,3.65
2023-06-06T23:26:53.783Z,3.90
2023-06-06T23:29:24.117Z,4.25
2023-06-06T23:31:54.464Z,3.97
2023-06-06T23:34:24.867Z,3.80
2023-06-06T23:37:00.931Z,4.00
2023-06-06T23:39:31.261Z,4.18
2023-06-06T23:42:04.511Z,3.97
2023-06-06T23:44:34.772Z,4.18
2023-06-06T23:47:05.084Z,3.85
2023-06-06T23:49:35.372Z,3.85
2023-06-06T23:52:26.066Z,3.70
2023-06-06T23:54:59.463Z,3.80
2023-06-06T23:57:29.666Z,3.92
